Česky Dansk Deutsch English Español Suomi Français Magyar Italiano Nederlands norsk Polski Português svenska Türkçe

 

Het Weer

Durazno (Uruguay)

20:00, 2 augustus 2016 (GMT)

NWNNE
WE
SWSSE
Home            
Durazno Mercedes Melilla Carrasco Colonia Paysandu Tacuarembo Treinta Y Tres Gualeguaychu Aerodrome Capitan Corbeta La Plata Aerodrome Aeroparque Bs. As. Aerodrome Maldonado / Punta Est San Fernando, BA Buenos Aires Observatorio Don Torcuato Aerodrome El Palomar Aerodrome Melo Ezeiza Aerodrome Salto Concordia Aerodrome Rivera Villaguay Aerodrome

Om een weerknop op uw website of weblog te plaatsen, copieer onderstaande code en plak die in uw pagina. In het eerste vakje staat HTML-code, in het tweede vakje UBB-code.


Add to Google

Details

Wind speed:2 bf, 4 kn, 2.1 m/s, 4.6 miles/h, 7.4 km/h
Wind direction:ESE, 120°
Visibility:Greater than 10000 m, 10 km, 32800 ft, 6.2 miles
Clouds:CAVOC
Temperature:13°C, 55°F
Dew-point:5°C, 41°F
Atmospheric pressure:1026 hPa, 769.6 mmHg, 30.30 inHg, 1.013 atm
Relative humidity:58.2 %
METAR:SUDU 022000Z 12004KT CAVOK 13/05 Q1026

Snelkoppelingen

Actuele weersinformatie van de hele wereld. Voeg locaties toe met het plus (+) symbool. Deze snelkoppelingen kunnen worden toegevoegd aan Google.

Lid van de Technetium groep

website free tracking
StatCounter NetStat W3C Validator

21-07-2019 05:11:23
astro.technetium.be money.technetium.be phote.technetium.be tafeltennistafel.technetium.be www.ligfiets.net